createdAt,value
2022-09-09T00:00:49.508Z,1.17
2022-09-09T00:03:22.003Z,1.30
2022-09-09T00:06:00.159Z,0.90
2022-09-09T00:08:40.145Z,1.20
2022-09-09T00:11:14.576Z,1.27
2022-09-09T00:13:51.147Z,1.00
2022-09-09T00:16:25.133Z,1.10
2022-09-09T00:19:02.963Z,0.93
2022-09-09T00:21:37.031Z,0.80
2022-09-09T00:24:14.940Z,1.07
2022-09-09T00:26:47.403Z,1.20
2022-09-09T00:29:25.425Z,1.27
2022-09-09T00:32:00.421Z,1.07
2022-09-09T00:34:30.036Z,1.33
2022-09-09T00:36:58.453Z,1.20
2022-09-09T00:39:44.582Z,0.73
2022-09-09T00:42:19.624Z,1.40
2022-09-09T00:45:03.638Z,0.97
2022-09-09T00:47:43.422Z,1.07
2022-09-09T00:50:25.847Z,1.20
2022-09-09T00:53:01.130Z,0.90
2022-09-09T00:55:37.577Z,1.23
2022-09-09T00:58:09.397Z,0.93
2022-09-09T01:00:44.004Z,0.90
2022-09-09T01:03:27.743Z,0.70
2022-09-09T01:06:04.947Z,0.83
2022-09-09T01:08:48.279Z,0.80
2022-09-09T01:11:23.689Z,1.00
2022-09-09T01:14:01.043Z,0.90
2022-09-09T01:16:33.599Z,0.97
2022-09-09T01:19:03.455Z,1.10
2022-09-09T01:21:42.434Z,0.80
2022-09-09T01:24:24.990Z,1.30
2022-09-09T01:27:15.447Z,0.97
2022-09-09T01:29:43.875Z,0.93
2022-09-09T01:32:43.590Z,1.00
2022-09-09T01:35:17.822Z,0.67
2022-09-09T01:37:47.334Z,0.97
2022-09-09T01:40:15.853Z,0.93
2022-09-09T01:42:46.431Z,1.00
2022-09-09T01:45:14.310Z,1.30
2022-09-09T01:47:43.428Z,0.97
2022-09-09T01:50:30.000Z,0.90
2022-09-09T01:53:01.986Z,1.40
2022-09-09T01:55:36.575Z,0.80
2022-09-09T01:58:19.397Z,1.27
2022-09-09T02:01:02.160Z,1.10
2022-09-09T02:03:34.733Z,0.73
2022-09-09T02:06:25.554Z,0.97
2022-09-09T02:09:00.946Z,0.77
2022-09-09T02:11:31.081Z,1.30
2022-09-09T02:14:14.339Z,0.87
2022-09-09T02:16:51.211Z,1.00
2022-09-09T02:19:27.823Z,0.90
2022-09-09T02:22:12.126Z,0.90
2022-09-09T02:24:41.967Z,0.93
2022-09-09T02:27:23.094Z,0.90
2022-09-09T02:29:55.143Z,1.00
2022-09-09T02:32:37.655Z,0.80
2022-09-09T02:35:14.367Z,0.87
2022-09-09T02:37:47.086Z,0.97
2022-09-09T02:40:17.326Z,1.40
2022-09-09T02:42:50.938Z,0.80
2022-09-09T02:45:27.026Z,1.00
2022-09-09T02:48:04.999Z,0.60
2022-09-09T02:50:36.432Z,0.80
2022-09-09T02:53:15.946Z,2.00
2022-09-09T02:55:49.495Z,1.33
2022-09-09T02:58:21.110Z,1.53
2022-09-09T03:01:01.870Z,1.30
2022-09-09T03:03:31.310Z,0.97
2022-09-09T03:06:00.518Z,1.00
2022-09-09T03:08:30.227Z,0.80
2022-09-09T03:11:02.340Z,0.90
2022-09-09T03:13:32.829Z,0.80
2022-09-09T03:16:02.214Z,0.73
2022-09-09T03:18:35.443Z,0.80
2022-09-09T03:21:03.434Z,0.70
2022-09-09T03:23:32.641Z,0.53
2022-09-09T03:26:04.263Z,0.83
2022-09-09T03:28:41.364Z,0.50
2022-09-09T03:31:11.336Z,1.00
2022-09-09T03:33:42.250Z,0.60
2022-09-09T03:36:14.735Z,0.97
2022-09-09T03:38:43.028Z,1.10
2022-09-09T03:41:10.942Z,0.77
2022-09-09T03:43:40.545Z,0.90
2022-09-09T03:46:09.829Z,1.00
2022-09-09T03:48:38.143Z,0.80
2022-09-09T03:51:07.037Z,1.00
2022-09-09T03:53:36.775Z,0.70
2022-09-09T03:56:05.204Z,0.60
2022-09-09T03:58:33.471Z,0.90
2022-09-09T04:01:11.425Z,0.77
2022-09-09T04:03:40.392Z,0.73
2022-09-09T04:06:11.845Z,0.63
2022-09-09T04:08:39.643Z,0.70
2022-09-09T04:11:08.450Z,1.00
2022-09-09T04:13:40.057Z,1.33
2022-09-09T04:16:12.455Z,1.10
2022-09-09T04:18:40.529Z,1.03
2022-09-09T04:21:12.113Z,1.40
2022-09-09T04:23:41.022Z,6.00
2022-09-09T04:26:09.878Z,2.00
2022-09-09T04:28:38.922Z,1.27
2022-09-09T04:31:19.077Z,1.40
2022-09-09T04:33:49.982Z,1.27
2022-09-09T04:36:19.201Z,1.67
2022-09-09T04:38:47.427Z,1.10
2022-09-09T04:41:16.454Z,1.40
2022-09-09T04:43:46.391Z,1.33
2022-09-09T04:46:18.102Z,1.20
2022-09-09T04:48:46.328Z,0.73
2022-09-09T04:51:16.118Z,1.20
2022-09-09T04:53:46.201Z,0.80
2022-09-09T04:56:16.840Z,1.03
2022-09-09T04:58:57.485Z,1.10
2022-09-09T05:01:35.082Z,1.33
2022-09-09T05:04:05.322Z,1.20
2022-09-09T05:06:35.059Z,1.47
2022-09-09T05:09:04.193Z,1.13
2022-09-09T05:11:36.968Z,1.00
2022-09-09T05:14:27.844Z,1.03
2022-09-09T05:16:58.980Z,1.00
2022-09-09T05:19:26.875Z,1.00
2022-09-09T05:21:55.522Z,0.93
2022-09-09T05:24:30.379Z,1.00
2022-09-09T05:27:00.875Z,1.00
2022-09-09T05:29:30.263Z,0.87
2022-09-09T05:32:02.606Z,1.07
2022-09-09T05:34:30.538Z,0.90
2022-09-09T05:36:59.987Z,1.13
2022-09-09T05:39:28.738Z,0.90
2022-09-09T05:41:56.997Z,1.30
2022-09-09T05:44:28.717Z,0.90
2022-09-09T05:46:59.485Z,1.10
2022-09-09T05:49:29.443Z,0.93
2022-09-09T05:51:58.517Z,1.00
2022-09-09T05:54:28.278Z,1.30
2022-09-09T05:56:57.015Z,1.30
2022-09-09T05:59:25.657Z,1.70
2022-09-09T06:01:57.357Z,1.97
2022-09-09T06:04:33.110Z,1.30
2022-09-09T06:07:04.921Z,1.20
2022-09-09T06:09:33.816Z,1.30
2022-09-09T06:12:02.058Z,1.23
2022-09-09T06:14:32.222Z,1.50
2022-09-09T06:17:03.359Z,1.60
2022-09-09T06:19:33.727Z,1.40
2022-09-09T06:22:02.174Z,1.33
2022-09-09T06:24:34.255Z,1.60
2022-09-09T06:27:04.007Z,1.23
2022-09-09T06:29:36.441Z,1.10
2022-09-09T06:32:05.750Z,1.50
2022-09-09T06:34:37.542Z,1.00
2022-09-09T06:37:08.080Z,1.10
2022-09-09T06:39:43.994Z,1.60
2022-09-09T06:42:13.357Z,1.00
2022-09-09T06:45:06.053Z,1.00
2022-09-09T06:47:40.751Z,1.30
2022-09-09T06:50:13.625Z,1.40
2022-09-09T06:52:42.587Z,1.07
2022-09-09T06:55:14.543Z,0.90
2022-09-09T06:57:42.678Z,0.93
2022-09-09T07:00:16.689Z,1.20
2022-09-09T07:02:45.704Z,1.07
2022-09-09T07:05:18.228Z,1.40
2022-09-09T07:07:47.960Z,1.47
2022-09-09T07:10:20.024Z,1.30
2022-09-09T07:12:53.179Z,1.00
2022-09-09T07:15:22.460Z,1.40
2022-09-09T07:17:50.471Z,1.30
2022-09-09T07:20:22.072Z,1.27
2022-09-09T07:22:51.584Z,1.33
2022-09-09T07:25:21.867Z,1.53
2022-09-09T07:27:50.263Z,1.10
2022-09-09T07:30:23.082Z,1.30
2022-09-09T07:32:58.367Z,0.90
2022-09-09T07:35:29.253Z,0.70
2022-09-09T07:37:58.862Z,1.10
2022-09-09T07:40:27.279Z,1.00
2022-09-09T07:42:55.084Z,1.10
2022-09-09T07:45:23.133Z,1.30
2022-09-09T07:47:51.427Z,1.00
2022-09-09T07:50:19.962Z,0.90
2022-09-09T07:52:49.246Z,1.30
2022-09-09T07:55:17.133Z,0.70
2022-09-09T07:57:45.304Z,0.77
2022-09-09T08:00:15.646Z,0.90
2022-09-09T08:02:48.020Z,1.00
2022-09-09T08:05:17.782Z,1.40
2022-09-09T08:07:46.808Z,1.00
2022-09-09T08:10:17.046Z,1.13
2022-09-09T08:13:01.555Z,1.00
2022-09-09T08:15:35.336Z,1.13
2022-09-09T08:18:03.600Z,1.20
2022-09-09T08:20:32.112Z,1.10
2022-09-09T08:23:00.070Z,0.90
2022-09-09T08:25:29.867Z,1.13
2022-09-09T08:27:58.214Z,1.60
2022-09-09T08:30:26.114Z,1.00
2022-09-09T08:32:54.263Z,0.87
2022-09-09T08:35:23.625Z,0.60
2022-09-09T08:37:55.947Z,0.80
2022-09-09T08:40:35.159Z,0.80
2022-09-09T08:43:07.118Z,0.90
2022-09-09T08:45:43.945Z,0.80
2022-09-09T08:48:26.100Z,0.90
2022-09-09T08:50:55.954Z,0.80
2022-09-09T08:53:32.788Z,0.97
2022-09-09T08:56:10.431Z,1.07
2022-09-09T08:58:47.783Z,1.30
2022-09-09T09:01:32.760Z,1.00
2022-09-09T09:04:14.548Z,1.17
2022-09-09T09:06:53.703Z,1.10
2022-09-09T09:09:31.359Z,0.50
2022-09-09T09:12:03.372Z,0.77
2022-09-09T09:14:39.460Z,0.90
2022-09-09T09:17:15.585Z,0.57
2022-09-09T09:19:45.222Z,0.60
2022-09-09T09:22:22.172Z,0.60
2022-09-09T09:24:56.071Z,0.70
2022-09-09T09:27:34.844Z,0.30
2022-09-09T09:30:26.892Z,0.33
2022-09-09T09:33:01.826Z,0.70
2022-09-09T09:35:30.711Z,0.60
2022-09-09T09:40:58.968Z,0.60
2022-09-09T09:43:32.836Z,0.80
2022-09-09T09:46:17.679Z,1.00
2022-09-09T09:48:47.382Z,0.77
2022-09-09T09:51:20.334Z,0.87
2022-09-09T09:53:50.570Z,0.80
2022-09-09T09:56:18.575Z,0.43
2022-09-09T09:58:54.872Z,1.10
2022-09-09T10:01:30.923Z,0.70
2022-09-09T10:04:03.818Z,0.93
2022-09-09T10:06:34.565Z,0.70
2022-09-09T10:09:08.615Z,0.97
2022-09-09T10:11:47.478Z,0.87
2022-09-09T10:14:22.802Z,0.70
2022-09-09T10:17:10.463Z,1.07
2022-09-09T10:19:39.692Z,1.20
2022-09-09T10:22:27.115Z,1.13
2022-09-09T10:25:20.437Z,0.97
2022-09-09T10:28:06.078Z,1.13
2022-09-09T10:30:45.060Z,0.83
2022-09-09T10:33:22.298Z,0.60
2022-09-09T10:36:00.003Z,0.90
2022-09-09T10:38:32.425Z,1.00
2022-09-09T10:41:10.291Z,0.80
2022-09-09T10:43:57.422Z,0.77
2022-09-09T10:46:39.626Z,0.90
2022-09-09T10:49:23.091Z,0.50
2022-09-09T10:51:59.999Z,1.10
2022-09-09T10:54:45.294Z,0.80
2022-09-09T10:57:19.148Z,1.13
2022-09-09T10:59:52.237Z,0.87
2022-09-09T11:02:28.946Z,1.10
2022-09-09T11:05:02.599Z,0.50
2022-09-09T11:07:39.178Z,0.50
2022-09-09T11:10:19.733Z,0.60
2022-09-09T11:12:51.220Z,0.57
2022-09-09T11:15:22.899Z,0.53
2022-09-09T11:17:57.629Z,0.90
2022-09-09T11:20:26.315Z,0.70
2022-09-09T11:23:01.433Z,0.40
2022-09-09T11:25:37.454Z,0.20
2022-09-09T11:28:26.016Z,0.30
2022-09-09T11:31:12.482Z,0.30
2022-09-09T11:33:58.486Z,0.20
2022-09-09T11:36:40.721Z,0.30
2022-09-09T11:39:26.562Z,0.20
2022-09-09T11:41:54.868Z,0.30
2022-09-09T11:44:30.583Z,0.30
2022-09-09T11:46:58.834Z,0.30
2022-09-09T11:49:32.371Z,0.40
2022-09-09T11:52:00.130Z,0.40
2022-09-09T11:54:31.758Z,0.33
2022-09-09T11:57:00.217Z,0.20
2022-09-09T11:59:31.277Z,0.27
2022-09-09T12:02:00.971Z,0.50
2022-09-09T12:04:35.258Z,0.27
2022-09-09T12:07:06.909Z,0.27
2022-09-09T12:09:49.310Z,0.40
2022-09-09T12:12:29.782Z,0.40
2022-09-09T12:15:21.783Z,0.40
2022-09-09T12:17:52.475Z,0.10
2022-09-09T12:20:25.952Z,0.20
2022-09-09T12:23:21.600Z,0.20
2022-09-09T12:26:14.428Z,0.30
2022-09-09T12:28:51.825Z,0.40
2022-09-09T12:31:27.624Z,0.10
2022-09-09T12:33:55.645Z,0.37
2022-09-09T12:36:30.528Z,0.27
2022-09-09T12:39:01.777Z,0.50
2022-09-09T12:41:30.269Z,0.40
2022-09-09T12:44:08.911Z,0.33
2022-09-09T12:46:41.497Z,0.43
2022-09-09T12:49:28.553Z,0.60
2022-09-09T12:51:59.613Z,0.23
2022-09-09T12:54:27.435Z,0.57
2022-09-09T12:56:55.343Z,0.50
2022-09-09T12:59:26.983Z,0.40
2022-09-09T13:01:58.925Z,0.50
2022-09-09T13:04:27.234Z,0.33
2022-09-09T13:06:56.406Z,0.53
2022-09-09T13:09:27.672Z,0.57
2022-09-09T13:11:59.178Z,0.50
2022-09-09T13:14:33.533Z,0.60
2022-09-09T13:17:05.356Z,0.50
2022-09-09T13:19:38.056Z,0.50
2022-09-09T13:22:14.306Z,0.40
2022-09-09T13:24:44.038Z,0.40
2022-09-09T13:27:28.707Z,0.30
2022-09-09T13:29:57.799Z,0.20
2022-09-09T13:32:27.950Z,0.30
2022-09-09T13:34:57.472Z,0.40
2022-09-09T13:37:31.035Z,0.33
2022-09-09T13:40:00.581Z,0.50
2022-09-09T13:42:30.423Z,0.30
2022-09-09T13:45:00.916Z,0.40
2022-09-09T13:47:32.692Z,0.20
2022-09-09T13:50:00.594Z,0.37
2022-09-09T13:52:33.462Z,0.37
2022-09-09T13:55:02.671Z,0.27
2022-09-09T13:57:30.527Z,0.20
2022-09-09T14:00:06.527Z,0.40
2022-09-09T14:02:34.916Z,0.30
2022-09-09T14:05:02.942Z,0.50
2022-09-09T14:07:30.859Z,0.40
2022-09-09T14:09:58.797Z,0.30
2022-09-09T14:12:28.284Z,0.40
2022-09-09T14:14:56.075Z,0.73
2022-09-09T14:17:23.919Z,0.30
2022-09-09T14:19:51.748Z,0.30
2022-09-09T14:22:19.531Z,0.50
2022-09-09T14:24:47.615Z,0.80
2022-09-09T14:27:15.431Z,0.20
2022-09-09T14:29:45.559Z,0.47
2022-09-09T14:32:13.623Z,0.60
2022-09-09T14:34:41.580Z,0.27
2022-09-09T14:37:09.544Z,0.20
2022-09-09T14:39:37.341Z,0.40
2022-09-09T14:42:06.220Z,0.40
2022-09-09T14:44:34.592Z,0.33
2022-09-09T14:47:03.803Z,0.20
2022-09-09T14:49:32.040Z,0.23
2022-09-09T14:52:00.258Z,0.43
2022-09-09T14:54:29.232Z,0.20
2022-09-09T14:56:58.106Z,0.40
2022-09-09T14:59:26.067Z,0.30
2022-09-09T15:01:54.081Z,0.30
2022-09-09T15:04:23.279Z,0.60
2022-09-09T15:06:53.373Z,0.50
2022-09-09T15:09:21.187Z,0.50
2022-09-09T15:11:49.066Z,0.37
2022-09-09T15:14:17.239Z,0.20
2022-09-09T15:16:45.028Z,0.30
2022-09-09T15:19:13.023Z,0.40
2022-09-09T15:21:42.207Z,0.33
2022-09-09T15:24:10.117Z,0.40
2022-09-09T15:26:39.587Z,0.50
2022-09-09T15:29:08.419Z,0.40
2022-09-09T15:31:36.638Z,0.30
2022-09-09T15:34:06.381Z,1.87
2022-09-09T15:36:36.436Z,0.77
2022-09-09T15:39:08.407Z,0.50
2022-09-09T15:41:36.782Z,0.50
2022-09-09T15:44:04.848Z,0.60
2022-09-09T15:46:36.920Z,0.50
2022-09-09T15:49:07.271Z,0.40
2022-09-09T15:51:42.623Z,0.53
2022-09-09T15:54:14.163Z,0.70
2022-09-09T15:56:43.289Z,0.33
2022-09-09T15:59:12.394Z,2.30
2022-09-09T16:01:41.878Z,0.67
2022-09-09T16:04:10.158Z,0.30
2022-09-09T16:06:38.400Z,0.40
2022-09-09T16:09:08.091Z,0.40
2022-09-09T16:11:39.859Z,0.40
2022-09-09T16:14:08.458Z,0.40
2022-09-09T16:16:37.229Z,0.30
2022-09-09T16:19:08.038Z,0.37
2022-09-09T16:21:40.828Z,0.50
2022-09-09T16:24:10.422Z,0.50
2022-09-09T16:26:42.950Z,0.40
2022-09-09T16:29:11.025Z,0.80
2022-09-09T16:31:39.352Z,0.40
2022-09-09T16:34:07.410Z,0.20
2022-09-09T16:36:37.035Z,0.30
2022-09-09T16:39:07.467Z,0.20
2022-09-09T16:41:35.761Z,0.10
2022-09-09T16:44:06.925Z,0.13
2022-09-09T16:46:37.492Z,0.20
2022-09-09T16:49:07.997Z,0.00
2022-09-09T16:51:38.529Z,0.17
2022-09-09T16:54:08.914Z,0.17
2022-09-09T16:56:39.039Z,0.20
2022-09-09T16:59:11.352Z,0.10
2022-09-09T17:01:41.726Z,0.20
2022-09-09T17:04:11.859Z,0.10
2022-09-09T17:06:40.117Z,0.10
2022-09-09T17:09:09.662Z,0.10
2022-09-09T17:11:38.351Z,0.30
2022-09-09T17:14:09.646Z,0.20
2022-09-09T17:16:40.451Z,0.10
2022-09-09T17:19:10.154Z,0.17
2022-09-09T17:21:54.535Z,0.10
2022-09-09T17:24:27.555Z,0.10
2022-09-09T17:26:55.572Z,0.23
2022-09-09T17:29:25.941Z,0.20
2022-09-09T17:31:54.475Z,0.20
2022-09-09T17:34:22.925Z,0.10
2022-09-09T17:36:51.086Z,0.60
2022-09-09T17:39:19.138Z,0.20
2022-09-09T17:41:47.481Z,0.30
2022-09-09T17:44:15.896Z,0.27
2022-09-09T17:46:46.546Z,0.20
2022-09-09T17:49:16.187Z,0.60
2022-09-09T17:51:45.572Z,0.30
2022-09-09T17:54:15.327Z,0.10
2022-09-09T17:56:43.897Z,0.30
2022-09-09T17:59:14.260Z,0.20
2022-09-09T18:01:44.895Z,0.30
2022-09-09T18:04:15.880Z,0.30
2022-09-09T18:06:45.860Z,0.43
2022-09-09T18:09:16.844Z,0.20
2022-09-09T18:11:46.915Z,0.30
2022-09-09T18:14:18.163Z,0.40
2022-09-09T18:16:47.167Z,0.37
2022-09-09T18:19:19.415Z,0.37
2022-09-09T18:21:47.977Z,0.40
2022-09-09T18:24:17.742Z,0.40
2022-09-09T18:26:48.280Z,0.23
2022-09-09T18:29:20.024Z,0.47
2022-09-09T18:31:48.969Z,0.50
2022-09-09T18:34:20.018Z,0.20
2022-09-09T18:36:50.027Z,0.30
2022-09-09T18:39:19.550Z,0.30
2022-09-09T18:41:49.326Z,0.40
2022-09-09T18:44:20.738Z,0.67
2022-09-09T18:46:50.164Z,0.53
2022-09-09T18:49:21.146Z,0.60
2022-09-09T18:51:49.333Z,0.40
2022-09-09T18:54:19.574Z,0.40
2022-09-09T18:56:48.652Z,0.40
2022-09-09T18:59:19.635Z,0.60
2022-09-09T19:01:48.047Z,0.70
2022-09-09T19:04:17.356Z,0.30
2022-09-09T19:06:48.503Z,0.40
2022-09-09T19:09:19.437Z,0.30
2022-09-09T19:11:48.078Z,0.30
2022-09-09T19:14:18.008Z,0.40
2022-09-09T19:16:47.772Z,0.50
2022-09-09T19:19:18.605Z,0.50
2022-09-09T19:21:48.227Z,0.80
2022-09-09T19:24:18.790Z,0.27
2022-09-09T19:26:49.027Z,0.30
2022-09-09T19:29:19.397Z,0.60
2022-09-09T19:32:02.213Z,0.40
2022-09-09T19:34:36.440Z,0.50
2022-09-09T19:37:05.995Z,0.50
2022-09-09T19:39:34.611Z,0.33
2022-09-09T19:42:02.859Z,0.50
2022-09-09T19:44:30.895Z,0.73
2022-09-09T19:47:00.799Z,0.50
2022-09-09T19:49:29.331Z,0.40
2022-09-09T19:51:57.404Z,1.30
2022-09-09T19:54:26.990Z,0.70
2022-09-09T19:56:55.386Z,0.50
2022-09-09T19:59:23.367Z,1.20
2022-09-09T20:01:51.597Z,0.93
2022-09-09T20:04:20.160Z,0.60
2022-09-09T20:06:48.330Z,0.60
2022-09-09T20:09:18.155Z,0.60
2022-09-09T20:11:48.917Z,0.80
2022-09-09T20:14:17.850Z,0.70
2022-09-09T20:16:46.846Z,1.20
2022-09-09T20:19:17.305Z,1.20
2022-09-09T20:21:49.433Z,0.60
2022-09-09T20:24:20.096Z,0.87
2022-09-09T20:26:49.712Z,0.50
2022-09-09T20:29:19.747Z,0.90
2022-09-09T20:31:48.659Z,0.77
2022-09-09T20:34:18.898Z,0.70
2022-09-09T20:36:47.571Z,0.50
2022-09-09T20:39:18.199Z,0.40
2022-09-09T20:41:46.605Z,0.63
2022-09-09T20:44:17.925Z,1.00
2022-09-09T20:46:48.905Z,0.50
2022-09-09T20:49:18.324Z,0.60
2022-09-09T20:51:46.914Z,0.50
2022-09-09T20:54:16.955Z,0.77
2022-09-09T20:56:46.428Z,0.73
2022-09-09T20:59:17.432Z,0.67
2022-09-09T21:01:47.588Z,0.70
2022-09-09T21:04:17.426Z,0.67
2022-09-09T21:06:45.698Z,0.60
2022-09-09T21:09:14.326Z,0.47
2022-09-09T21:11:42.603Z,0.70
2022-09-09T21:14:10.959Z,0.70
2022-09-09T21:16:40.314Z,0.60
2022-09-09T21:19:08.499Z,0.40
2022-09-09T21:21:37.255Z,0.57
2022-09-09T21:24:05.865Z,0.60
2022-09-09T21:26:35.539Z,0.60
2022-09-09T21:29:03.646Z,0.50
2022-09-09T21:31:31.949Z,0.50
2022-09-09T21:34:01.411Z,0.67
2022-09-09T21:36:29.530Z,0.70
2022-09-09T21:38:59.222Z,1.67
2022-09-09T21:41:27.461Z,0.80
2022-09-09T21:43:56.411Z,0.70
2022-09-09T21:46:26.674Z,0.90
2022-09-09T21:48:56.696Z,0.40
2022-09-09T21:51:26.512Z,0.67
2022-09-09T21:53:56.424Z,0.50
2022-09-09T21:56:24.948Z,1.00
2022-09-09T21:58:56.843Z,0.60
2022-09-09T22:01:26.183Z,0.50
2022-09-09T22:03:54.412Z,0.53
2022-09-09T22:06:22.379Z,0.60
2022-09-09T22:08:51.820Z,0.80
2022-09-09T22:11:22.184Z,1.00
2022-09-09T22:13:50.700Z,0.60
2022-09-09T22:16:21.359Z,0.60
2022-09-09T22:18:52.513Z,1.13
2022-09-09T22:21:21.950Z,0.60
2022-09-09T22:23:55.517Z,0.50
2022-09-09T22:26:23.876Z,0.70
2022-09-09T22:28:53.853Z,0.80
2022-09-09T22:31:23.046Z,0.73
2022-09-09T22:33:52.191Z,0.90
2022-09-09T22:36:21.137Z,0.40
2022-09-09T22:38:49.601Z,0.73
2022-09-09T22:41:19.946Z,0.53
2022-09-09T22:43:48.545Z,0.87
2022-09-09T22:46:17.095Z,0.70
2022-09-09T22:48:45.265Z,0.43
2022-09-09T22:51:15.714Z,0.70
2022-09-09T22:53:45.459Z,0.90
2022-09-09T22:56:15.742Z,0.90
2022-09-09T22:58:46.145Z,0.90
2022-09-09T23:01:16.968Z,0.90
2022-09-09T23:03:47.111Z,0.73
2022-09-09T23:06:22.126Z,0.80
2022-09-09T23:08:52.046Z,0.83
2022-09-09T23:11:21.505Z,1.00
2022-09-09T23:13:53.057Z,0.87
2022-09-09T23:16:23.434Z,1.20
2022-09-09T23:18:52.215Z,1.20
2022-09-09T23:21:20.965Z,1.20
2022-09-09T23:23:49.767Z,1.20
2022-09-09T23:26:20.268Z,0.77
2022-09-09T23:28:51.841Z,1.10
2022-09-09T23:31:22.720Z,0.90
2022-09-09T23:33:50.780Z,1.10
2022-09-09T23:36:20.784Z,1.07
2022-09-09T23:38:49.158Z,1.00
2022-09-09T23:41:21.031Z,0.93
2022-09-09T23:43:52.232Z,0.80
2022-09-09T23:46:22.289Z,0.70
2022-09-09T23:48:51.902Z,0.93
2022-09-09T23:51:23.965Z,0.60
2022-09-09T23:53:53.760Z,0.67
2022-09-09T23:56:23.238Z,0.60
2022-09-09T23:58:53.244Z,0.57
